Aérodrome :
LOGIN :

S'inscrire | Disclaimer

   EN    FR    IT 

 










Légende :    VFR   VFR Marginal   IFR   IFR Intensif   IFR Très Intensif
Visi : 
Plafond : 
>= 8 km
>= 3000ft
5 à 8 km
1000 à 3000 ft
1500m à 5 km
500 à 1000 ft
800 à 1500m
200 à 500 ft
< 800m
< 200 ft
Symboles :   Orages  Brouillard  Fortes neiges  Fortes précipitations  Vent > 20 kt
SIGMETs :   Divers  Orages  Givrage  Turbulence  Onde Orograph.  Cendres Volcan.






- Altitude de l'aérodrome : 124 ft
- Code IATA : RNS


LFRN - Rennes

DERNIER METAR :
  • 020200Z AUTO 26002KT CAVOK 03/02 Q1024 TEMPO 0500 FG

METARs EXPIRÉS :
  • 020130Z AUTO VRB02KT CAVOK 02/02 Q1024 TEMPO 0500 FG
  • 020100Z AUTO 26002KT CAVOK 02/02 Q1024 TEMPO 0500 FG
  • 020030Z AUTO 32004KT CAVOK 03/02 Q1024 TEMPO 0500 FG
  • 020000Z AUTO 32005KT CAVOK 03/02 Q1024 TEMPO 3000 BR
  • 012330Z AUTO 31005KT CAVOK 03/02 Q1024 TEMPO 3000 BR

TAF TAF LFRN
Valide du 02 à 00h jusqu'au 03 à 00h UTC


012300Z 0200/0224 33008KT 9999 SCT030
TEMPO 0200/0209 3000 BR
PROB30
TEMPO 0202/0208 0500 FG
BECMG 0216/0218 24010KT BKN015
TEMPO 0218/0222 4000 RA BKN007
BECMG 0222/0224 SCT020
ATIS : +33 2 99 67 72 50



MET'MAP, la Météo Aéronautique d'un coup d'oeil ! - Copyright ORBIFLY Décembre 2007 - Disclaimer

ORBIFLY MET'MAP TEAM :

Programmation & Développement : Alexandra Zaïnal
Sur une idée originale de : Baudouin d'Aumeries
Assistance à la programmation : Marc-Olivier Méhu
Soutien technique & logistique : Manuel Goepfert

Contact : metmap@orbifly.com




SOURCES & CREDITS :

   NOAA